Time;durP1;ratioP1;P1;durP2;ratioP2;P2;SDS_P1;SDS_P2;PMS_P1;PMS_P2;Temp;Humidity;BMP_temperature;BMP_pressure;BME280_temperature;BME280_humidity;BME280_pressure;Samples;Min_cycle;Max_cycle;Signal;HPM_P1;HPM_P2
2022/06/06 04:22:51;;;;;;;8.25;5.28;;;;;;;16.08;100.00;100323.44;5088657;28;20197;-77
2022/06/06 04:26:01;;;;;;;6.90;4.55;;;;;;;16.17;100.00;100327.56;5088840;28;20070;-77
2022/06/06 04:28:33;;;;;;;9.05;5.10;;;;;;;16.23;100.00;100322.16;5087312;28;20044;-77
2022/06/06 04:31:26;;;;;;;7.30;4.57;;;;;;;16.29;100.00;100312.44;5088815;28;20498;-78
2022/06/06 04:34:10;;;;;;;9.25;5.20;;;;;;;16.36;100.00;100317.81;5089592;28;20031;-75
2022/06/06 04:36:45;;;;;;;5.28;4.22;;;;;;;16.42;100.00;100323.19;5088573;28;20047;-76
2022/06/06 04:39:21;;;;;;;6.20;4.10;;;;;;;16.50;100.00;100325.69;5087390;28;20032;-75
2022/06/06 04:42:08;;;;;;;7.75;4.93;;;;;;;16.59;100.00;100333.50;5088291;28;20072;-76
2022/06/06 04:44:48;;;;;;;8.75;4.60;;;;;;;16.65;100.00;100319.22;5088518;28;20039;-77
2022/06/06 04:47:35;;;;;;;8.05;4.45;;;;;;;16.73;100.00;100335.16;5088612;28;20453;-77
2022/06/06 04:50:15;;;;;;;4.93;4.03;;;;;;;16.78;100.00;100329.97;5088571;28;20032;-77
2022/06/06 04:52:46;;;;;;;7.70;4.57;;;;;;;16.83;100.00;100330.19;5088605;28;20120;-77
2022/06/06 04:55:16;;;;;;;7.75;4.57;;;;;;;16.88;100.00;100329.50;5089126;28;20032;-78
2022/06/06 04:57:46;;;;;;;5.65;4.90;;;;;;;16.96;100.00;100332.81;5088388;28;20036;-76
2022/06/06 05:00:12;;;;;;;5.28;4.15;;;;;;;17.01;100.00;100334.84;5088652;28;20445;-77
2022/06/06 05:02:38;;;;;;;9.20;4.43;;;;;;;17.07;100.00;100331.31;5088495;28;20044;-77
2022/06/06 05:05:05;;;;;;;8.48;4.82;;;;;;;17.13;100.00;100333.13;5088847;28;20052;-77
2022/06/06 05:08:07;;;;;;;6.95;4.13;;;;;;;17.20;100.00;100333.94;5090329;28;20078;-78
2022/06/06 05:10:49;;;;;;;5.38;4.00;;;;;;;17.23;100.00;100327.31;5089233;28;20048;-75
2022/06/06 05:13:18;;;;;;;5.22;4.55;;;;;;;17.31;99.77;100340.53;5087729;28;20032;-77
2022/06/06 05:15:55;;;;;;;5.90;4.68;;;;;;;17.33;100.00;100331.19;5087847;28;20035;-76
2022/06/06 05:18:27;;;;;;;8.15;4.47;;;;;;;17.37;99.57;100328.91;5087899;28;20066;-76
2022/06/06 05:21:03;;;;;;;8.45;5.13;;;;;;;17.41;98.62;100324.75;5094240;28;20028;-76
2022/06/06 05:23:41;;;;;;;6.20;4.38;;;;;;;17.43;97.58;100319.97;5106775;28;20036;-76
2022/06/06 05:26:40;;;;;;;7.88;4.45;;;;;;;17.49;95.67;100321.78;5107894;28;20092;-75
2022/06/06 05:29:23;;;;;;;5.47;4.43;;;;;;;17.51;95.72;100325.06;5107997;28;20089;-76
2022/06/06 05:32:26;;;;;;;5.13;4.45;;;;;;;17.57;95.84;100337.69;5106153;28;20093;-76
2022/06/06 05:35:04;;;;;;;7.18;4.50;;;;;;;17.60;94.85;100337.25;5094314;28;20039;-75
2022/06/06 05:37:53;;;;;;;6.72;4.45;;;;;;;17.69;94.88;100347.78;5094021;28;20431;-75
2022/06/06 05:40:38;;;;;;;7.30;4.70;;;;;;;17.73;93.29;100340.91;5094156;28;20400;-75
2022/06/06 05:43:29;;;;;;;6.72;4.78;;;;;;;17.81;93.45;100352.28;5093857;28;20174;-75
2022/06/06 05:45:54;;;;;;;5.60;4.20;;;;;;;17.88;93.33;100355.75;5094109;28;20040;-75
2022/06/06 05:48:38;;;;;;;6.32;4.40;;;;;;;17.94;92.60;100358.63;5092694;28;20085;-75
2022/06/06 05:51:16;;;;;;;7.93;4.40;;;;;;;17.98;91.85;100362.50;5092516;28;20024;-75
2022/06/06 05:53:47;;;;;;;7.75;3.70;;;;;;;18.04;91.58;100362.47;5093731;28;20115;-75
2022/06/06 05:56:28;;;;;;;5.45;4.15;;;;;;;18.03;90.78;100360.81;5093803;28;20062;-75
2022/06/06 05:59:09;;;;;;;6.15;4.90;;;;;;;18.05;90.22;100364.09;5092536;28;20067;-75
2022/06/06 06:01:53;;;;;;;6.15;4.20;;;;;;;18.08;91.43;100363.69;5092369;28;20092;-76
2022/06/06 06:04:36;;;;;;;6.65;4.57;;;;;;;18.11;90.35;100379.41;5093717;28;20125;-77
2022/06/06 06:07:12;;;;;;;6.68;4.47;;;;;;;18.10;90.57;100372.34;5093683;28;20036;-76
2022/06/06 06:09:43;;;;;;;6.82;5.05;;;;;;;18.16;91.57;100387.66;5092312;28;20066;-75
2022/06/06 06:12:26;;;;;;;7.75;4.82;;;;;;;18.16;90.85;100394.91;5093330;28;20064;-73
2022/06/06 06:14:58;;;;;;;7.40;4.38;;;;;;;18.17;91.10;100393.88;5093553;28;20032;-72
2022/06/06 06:17:25;;;;;;;8.48;4.55;;;;;;;18.14;90.90;100400.53;5093735;28;20446;-73
2022/06/06 06:20:05;;;;;;;5.07;4.53;;;;;;;18.17;92.25;100401.97;5093401;28;20032;-73
2022/06/06 06:22:37;;;;;;;8.32;4.88;;;;;;;18.15;92.05;100394.09;5091678;28;20480;-73
2022/06/06 06:25:04;;;;;;;7.03;4.78;;;;;;;18.18;92.44;100404.44;5093381;28;20047;-73
2022/06/06 06:27:33;;;;;;;6.30;4.93;;;;;;;18.28;93.01;100408.53;5093370;28;20032;-73
2022/06/06 06:29:59;;;;;;;6.15;4.78;;;;;;;18.26;92.80;100407.94;5093142;28;20266;-73
2022/06/06 06:32:42;;;;;;;5.65;4.63;;;;;;;18.33;93.03;100416.78;5092880;28;20032;-73
2022/06/06 06:35:20;;;;;;;6.90;4.68;;;;;;;18.40;91.86;100418.38;5082434;28;20028;-73
2022/06/06 06:37:48;;;;;;;5.93;4.82;;;;;;;18.49;91.40;100418.09;5091746;28;20036;-73
2022/06/06 06:40:45;;;;;;;6.97;4.88;;;;;;;18.46;90.32;100413.16;5091318;28;20040;-72
2022/06/06 06:43:33;;;;;;;8.60;5.13;;;;;;;18.53;89.55;100424.72;5091899;28;20488;-72
2022/06/06 06:46:04;;;;;;;7.45;5.28;;;;;;;18.62;89.13;100420.66;5092156;28;20032;-72
2022/06/06 06:48:38;;;;;;;6.45;5.00;;;;;;;18.70;87.77;100421.22;5091219;28;20453;-74
2022/06/06 06:51:21;;;;;;;6.70;4.95;;;;;;;18.80;85.20;100414.53;5091329;28;20032;-74
2022/06/06 06:54:07;;;;;;;7.80;5.03;;;;;;;18.90;85.71;100425.59;5091934;28;20032;-73
2022/06/06 06:56:39;;;;;;;5.53;4.68;;;;;;;18.98;85.23;100433.44;5092942;28;20032;-73
2022/06/06 06:59:35;;;;;;;6.53;4.80;;;;;;;18.97;84.66;100424.53;5092429;28;20140;-74
2022/06/06 07:10:57;;;;;;;5.75;4.70;;;;;;;19.40;82.89;100425.47;5072102;28;20036;-73
2022/06/06 07:13:50;;;;;;;7.63;4.60;;;;;;;19.44;82.72;100423.97;5071083;28;20043;-72
2022/06/06 07:16:24;;;;;;;5.70;4.15;;;;;;;19.44;82.17;100419.41;5071803;28;20024;-73
2022/06/06 07:18:55;;;;;;;6.47;4.43;;;;;;;19.43;78.84;100419.59;5070237;28;20041;-74
2022/06/06 07:21:23;;;;;;;6.63;4.35;;;;;;;19.43;77.69;100419.59;5071473;28;20041;-73
2022/06/06 07:23:49;;;;;;;5.32;4.10;;;;;;;19.39;78.58;100419.25;5070974;28;20037;-74
2022/06/06 07:26:16;;;;;;;6.82;4.88;;;;;;;19.45;78.27;100422.94;5071725;28;20037;-74
2022/06/06 07:28:41;;;;;;;7.57;4.63;;;;;;;19.38;79.38;100428.41;5071697;28;20032;-73
2022/06/06 07:31:31;;;;;;;7.80;4.88;;;;;;;19.44;76.88;100424.81;5071516;28;20059;-74
2022/06/06 07:34:31;;;;;;;7.93;4.90;;;;;;;19.43;77.63;100431.25;5070882;28;20037;-74
2022/06/06 07:37:10;;;;;;;6.82;4.18;;;;;;;19.39;77.46;100429.22;5071599;28;20572;-73
2022/06/06 07:39:53;;;;;;;4.88;4.35;;;;;;;19.36;77.97;100432.38;5071397;28;20040;-77
2022/06/06 07:42:41;;;;;;;5.97;4.10;;;;;;;19.36;77.79;100435.88;5071153;28;20150;-77
2022/06/06 07:45:06;;;;;;;8.80;4.75;;;;;;;19.32;79.30;100429.31;5071833;28;20128;-76
2022/06/06 07:47:38;;;;;;;6.25;4.50;;;;;;;19.36;78.43;100421.56;5071868;28;20040;-77
2022/06/06 07:50:11;;;;;;;8.73;4.70;;;;;;;19.34;77.78;100421.78;5071451;28;20123;-74
2022/06/06 07:52:36;;;;;;;7.15;4.82;;;;;;;19.38;77.72;100420.31;5072434;28;20064;-75
2022/06/06 07:55:08;;;;;;;7.82;4.32;;;;;;;19.41;78.95;100410.91;5072331;28;20036;-74
2022/06/06 07:57:49;;;;;;;8.85;5.75;;;;;;;19.44;79.66;100419.41;5055092;28;20107;-82
2022/06/06 08:00:25;;;;;;;6.60;4.57;;;;;;;19.44;79.42;100405.06;5074248;28;20068;-76
2022/06/06 08:02:56;;;;;;;8.00;5.00;;;;;;;19.61;77.84;100407.97;5072528;28;20064;-76
2022/06/06 08:05:40;;;;;;;6.75;4.78;;;;;;;19.88;77.82;100409.25;5071980;28;20093;-75
2022/06/06 08:08:15;;;;;;;5.93;4.68;;;;;;;20.12;76.69;100395.81;5073741;28;20043;-79
2022/06/06 08:10:46;;;;;;;5.60;3.95;;;;;;;20.31;74.82;100398.19;5074985;28;20094;-77
2022/06/06 08:13:14;;;;;;;4.93;3.75;;;;;;;20.46;72.28;100397.75;5073180;28;20037;-79
2022/06/06 08:16:03;;;;;;;6.35;4.40;;;;;;;20.67;71.14;100396.38;5073206;28;20074;-78
2022/06/06 08:18:47;;;;;;;5.07;4.20;;;;;;;20.88;69.74;100383.28;5073879;28;20036;-79
2022/06/06 08:21:28;;;;;;;7.82;4.20;;;;;;;21.02;67.59;100373.84;5071788;28;20033;-79
2022/06/06 08:23:58;;;;;;;5.18;3.78;;;;;;;20.98;67.74;100383.50;5074321;28;20098;-79
2022/06/06 08:26:26;;;;;;;6.82;3.97;;;;;;;21.13;66.88;100375.72;5073922;28;20414;-80
2022/06/06 08:28:52;;;;;;;5.25;3.67;;;;;;;21.13;66.25;100373.00;5072572;28;20392;-75
2022/06/06 08:31:18;;;;;;;4.90;3.55;;;;;;;21.31;65.63;100374.72;5071172;28;20075;-76
2022/06/06 08:33:45;;;;;;;4.43;3.75;;;;;;;21.28;65.69;100373.31;5073441;28;20519;-78
2022/06/06 08:36:26;;;;;;;6.25;3.75;;;;;;;21.21;68.14;100369.91;5072129;28;20424;-80
2022/06/06 08:39:13;;;;;;;4.65;3.65;;;;;;;21.14;65.44;100372.75;5073395;28;20048;-78
2022/06/06 08:42:17;;;;;;;6.72;4.00;;;;;;;21.22;65.07;100360.72;5073445;28;20048;-77
2022/06/06 08:45:08;;;;;;;4.53;3.50;;;;;;;21.52;64.67;100352.41;5073309;28;20037;-77
2022/06/06 08:47:44;;;;;;;6.85;3.85;;;;;;;21.78;63.65;100366.38;5074290;28;20060;-78
2022/06/06 08:53:30;;;;;;;8.30;3.80;;;;;;;22.18;59.37;100358.16;5075036;28;20036;-79
2022/06/06 08:56:21;;;;;;;5.88;3.40;;;;;;;22.58;59.07;100359.84;5075426;28;20044;-77
2022/06/06 08:59:12;;;;;;;7.05;3.63;;;;;;;22.75;57.43;100357.91;5074658;28;20123;-79
2022/06/06 09:02:12;;;;;;;4.20;3.20;;;;;;;22.52;56.92;100348.09;5072894;28;20047;-77
2022/06/06 09:04:50;;;;;;;5.38;3.63;;;;;;;22.48;56.29;100350.47;5071548;28;20040;-77
2022/06/06 09:07:18;;;;;;;5.28;2.95;;;;;;;22.34;55.91;100351.91;5073866;28;20090;-76
2022/06/06 09:10:21;;;;;;;4.57;2.83;;;;;;;22.21;55.35;100354.94;5056909;28;20024;-77
2022/06/06 09:12:52;;;;;;;5.38;2.70;;;;;;;22.02;57.10;100350.81;5074194;28;20119;-76
2022/06/06 09:15:39;;;;;;;4.93;3.03;;;;;;;22.32;58.76;100350.53;5074859;28;20032;-74
2022/06/06 09:18:13;;;;;;;4.75;3.65;;;;;;;22.58;58.30;100352.53;5077749;28;20072;-79
2022/06/06 09:21:02;;;;;;;5.97;4.10;;;;;;;23.03;58.12;100346.09;5077501;28;20035;-78
2022/06/06 09:23:40;;;;;;;6.20;3.22;;;;;;;23.46;58.39;100345.22;5075838;28;20036;-77
2022/06/06 09:26:45;;;;;;;3.30;3.00;;;;;;;23.25;54.87;100337.94;5075843;28;20085;-76
2022/06/06 09:29:19;;;;;;;5.72;2.85;;;;;;;23.06;55.12;100344.78;5080033;28;20406;-80
2022/06/06 09:31:59;;;;;;;5.97;3.10;;;;;;;22.79;53.31;100337.34;5077493;28;20035;-80
2022/06/06 09:35:01;;;;;;;7.32;3.53;;;;;;;22.89;53.66;100320.41;5077841;28;20036;-78
2022/06/06 09:37:52;;;;;;;6.82;3.22;;;;;;;22.98;54.96;100335.19;5077887;28;20036;-77
2022/06/06 09:40:32;;;;;;;4.35;2.83;;;;;;;22.63;52.54;100325.47;5077163;28;20043;-78
2022/06/06 09:43:11;;;;;;;5.70;3.08;;;;;;;22.63;52.86;100330.06;5074578;28;20032;-78
2022/06/06 09:45:50;;;;;;;7.20;2.83;;;;;;;22.72;54.97;100325.84;5075067;28;20632;-78
2022/06/06 09:48:37;;;;;;;6.70;3.25;;;;;;;22.57;55.08;100320.22;5076372;28;20037;-78
2022/06/06 09:51:21;;;;;;;;;;;;;;;22.66;55.78;100324.94;5075975;28;20028;-78
2022/06/06 10:00:13;;;;;;;8.60;3.45;;;;;;;22.09;60.70;100340.66;5076038;28;20382;-77
2022/06/06 10:03:01;;;;;;;7.07;3.78;;;;;;;21.82;63.49;100340.44;5077304;28;20377;-77
2022/06/06 10:05:51;;;;;;;5.60;3.15;;;;;;;21.32;67.24;100342.00;5076023;28;20039;-78
2022/06/06 10:08:45;;;;;;;7.63;3.60;;;;;;;20.97;69.16;100343.94;5072566;28;20043;-74
2022/06/06 10:11:29;;;;;;;5.90;4.40;;;;;;;20.77;69.08;100347.88;5073508;28;20358;-74
2022/06/06 10:14:28;;;;;;;6.28;4.00;;;;;;;20.54;71.33;100340.59;5073303;28;20034;-74
2022/06/06 10:17:21;;;;;;;6.47;4.35;;;;;;;20.18;73.00;100341.63;5073428;28;20559;-72
2022/06/06 10:20:11;;;;;;;4.45;3.70;;;;;;;20.20;74.16;100331.38;5073246;28;20036;-73
2022/06/06 10:22:58;;;;;;;7.32;4.10;;;;;;;20.20;74.86;100331.38;5073016;28;20124;-73
2022/06/06 10:25:49;;;;;;;7.50;3.97;;;;;;;20.10;76.45;100335.75;5073299;28;20064;-73
2022/06/06 10:28:29;;;;;;;6.35;3.85;;;;;;;19.94;77.73;100338.03;5073427;28;20038;-73
2022/06/06 10:31:03;;;;;;;4.68;3.70;;;;;;;20.14;76.89;100337.72;5073301;28;20024;-73
2022/06/06 10:33:56;;;;;;;6.32;4.20;;;;;;;20.62;77.36;100330.47;5073363;28;20089;-74
2022/06/06 10:36:40;;;;;;;4.93;3.88;;;;;;;21.51;72.27;100328.22;5073045;28;20032;-74
2022/06/06 10:39:37;;;;;;;7.25;3.67;;;;;;;22.27;67.36;100334.16;5071515;28;20033;-73
2022/06/06 10:42:15;;;;;;;6.07;4.03;;;;;;;23.21;65.97;100331.34;5072633;28;20060;-74
2022/06/06 10:44:56;;;;;;;6.85;3.70;;;;;;;23.93;60.85;100331.03;5072799;28;20041;-74
2022/06/06 10:47:37;;;;;;;3.58;3.13;;;;;;;24.47;55.25;100322.75;5071738;28;20044;-75
2022/06/06 10:50:29;;;;;;;7.50;3.40;;;;;;;24.72;55.88;100310.34;5072907;28;20035;-75
2022/06/06 10:53:34;;;;;;;5.97;3.22;;;;;;;24.55;51.26;100297.72;5073334;28;20505;-74
2022/06/06 10:56:48;;;;;;;5.22;3.28;;;;;;;24.79;52.87;100300.03;5072981;28;20520;-74
2022/06/06 10:59:30;;;;;;;5.57;3.47;;;;;;;24.51;52.89;100304.78;4991235;28;20042;-75
2022/06/06 11:02:08;;;;;;;6.38;3.22;;;;;;;24.01;54.18;100297.09;5065004;28;20044;-74
2022/06/06 11:05:04;;;;;;;4.55;2.92;;;;;;;23.60;53.19;100298.59;5073061;28;20040;-75
2022/06/06 11:07:58;;;;;;;3.70;2.70;;;;;;;23.16;53.03;100296.00;5072831;28;20507;-74
2022/06/06 11:10:33;;;;;;;4.13;2.63;;;;;;;23.11;52.28;100287.78;5072569;28;20028;-73
2022/06/06 11:13:22;;;;;;;5.57;2.78;;;;;;;22.78;52.44;100297.69;5071983;28;20078;-73
2022/06/06 11:16:09;;;;;;;4.38;2.75;;;;;;;22.96;54.69;100289.25;5072193;28;20112;-74
2022/06/06 11:19:02;;;;;;;6.82;2.72;;;;;;;22.80;54.43;100281.97;5072255;28;20040;-74
2022/06/06 11:21:47;;;;;;;4.80;3.25;;;;;;;22.80;55.92;100284.66;5071961;28;20052;-74
2022/06/06 11:24:30;;;;;;;3.80;3.08;;;;;;;23.01;57.86;100288.47;5072098;28;20028;-74
2022/06/06 11:27:53;;;;;;;4.00;2.70;;;;;;;23.16;59.01;100285.13;5070706;28;20028;-74
2022/06/06 11:30:48;;;;;;;4.97;3.38;;;;;;;23.68;57.61;100277.25;4989764;28;20041;-74
2022/06/06 11:33:32;;;;;;;4.60;2.95;;;;;;;24.57;55.51;100279.22;4990211;28;20038;-75
2022/06/06 11:36:16;;;;;;;3.78;2.80;;;;;;;24.85;52.35;100269.81;5055222;28;20090;-74
2022/06/06 11:39:06;;;;;;;5.68;2.90;;;;;;;24.85;49.61;100260.84;5071076;28;20060;-73
2022/06/06 11:41:53;;;;;;;7.05;3.33;;;;;;;24.83;50.98;100257.53;5072910;28;20123;-75
2022/06/06 11:44:49;;;;;;;5.03;2.70;;;;;;;24.58;52.12;100250.94;5072862;28;20046;-75
2022/06/06 11:47:39;;;;;;;3.00;2.70;;;;;;;23.95;52.49;100260.88;5073632;28;20113;-76
2022/06/06 11:50:43;;;;;;;4.88;2.90;;;;;;;24.07;53.39;100255.25;5075588;28;20047;-77
2022/06/06 11:53:29;;;;;;;5.70;3.03;;;;;;;23.39;54.33;100254.91;5073396;28;20071;-78
2022/06/06 11:56:13;;;;;;;5.03;2.90;;;;;;;23.19;54.04;100263.69;5071993;28;20041;-78
2022/06/06 11:58:48;;;;;;;5.65;3.40;;;;;;;23.02;55.83;100269.22;5072026;28;20060;-75
2022/06/06 12:01:31;;;;;;;4.32;3.45;;;;;;;23.19;54.63;100260.16;5072424;28;20033;-76
2022/06/06 12:04:21;;;;;;;4.75;3.20;;;;;;;23.40;54.15;100255.75;5072453;28;20028;-77
2022/06/06 12:06:59;;;;;;;5.85;3.08;;;;;;;23.52;54.46;100262.66;5072248;28;20043;-76
2022/06/06 12:09:54;;;;;;;4.90;3.50;;;;;;;23.64;55.79;100248.91;5070979;28;20043;-75
2022/06/06 12:12:42;;;;;;;4.38;3.58;;;;;;;23.68;56.10;100251.97;5071095;28;20037;-77
2022/06/06 12:15:22;;;;;;;7.43;3.55;;;;;;;23.76;55.88;100251.47;5073601;28;20040;-77
2022/06/06 12:18:15;;;;;;;5.95;3.25;;;;;;;23.78;54.94;100252.03;5072206;28;20477;-74
2022/06/06 12:21:06;;;;;;;3.25;2.90;;;;;;;23.70;54.45;100242.44;5072635;28;20040;-76
2022/06/06 12:23:47;;;;;;;4.43;2.78;;;;;;;23.73;55.61;100252.78;5071551;28;20032;-74
2022/06/06 12:26:31;;;;;;;3.83;3.20;;;;;;;23.41;56.40;100255.50;5071662;28;20044;-76
2022/06/06 12:29:14;;;;;;;6.25;3.20;;;;;;;23.37;55.54;100245.41;5071710;28;20406;-76
2022/06/06 12:31:53;;;;;;;3.38;2.83;;;;;;;23.26;55.01;100250.72;5071328;28;20025;-75
2022/06/06 12:34:30;;;;;;;6.07;3.40;;;;;;;23.22;56.54;100252.31;5071252;28;20501;-76
2022/06/06 12:37:08;;;;;;;6.32;3.13;;;;;;;22.96;56.77;100239.56;5070049;28;20033;-76
2022/06/06 12:40:18;;;;;;;4.13;3.17;;;;;;;22.68;59.15;100246.78;5071130;28;20037;-75
2022/06/06 12:42:53;;;;;;;5.30;3.45;;;;;;;22.70;57.82;100228.38;5072243;28;20044;-76
2022/06/06 12:45:43;;;;;;;4.22;2.90;;;;;;;22.57;57.95;100231.47;5075064;28;20082;-75
2022/06/06 12:48:38;;;;;;;4.57;2.90;;;;;;;22.43;58.21;100233.75;5075037;28;20031;-76
2022/06/06 12:51:23;;;;;;;5.63;3.22;;;;;;;22.37;57.84;100234.75;5075104;28;20033;-76
2022/06/06 12:54:00;;;;;;;4.22;2.90;;;;;;;22.28;57.83;100233.50;5074966;28;20079;-76
2022/06/06 12:56:45;;;;;;;6.07;3.35;;;;;;;22.24;58.00;100223.44;5075020;28;20169;-76
2022/06/06 12:59:36;;;;;;;8.88;5.03;;;;;;;22.16;58.88;100224.66;5075052;28;20043;-76
2022/06/06 13:02:10;;;;;;;14.23;9.00;;;;;;;22.19;59.57;100219.56;5074555;28;20044;-76
2022/06/06 13:04:45;;;;;;;15.73;10.90;;;;;;;22.07;60.36;100226.13;5074641;28;20036;-76
2022/06/06 13:07:29;;;;;;;11.15;5.38;;;;;;;22.00;60.03;100215.47;5074815;28;20032;-76
2022/06/06 13:10:27;;;;;;;5.93;3.50;;;;;;;21.93;60.47;100226.50;5074650;28;20477;-76
2022/06/06 13:13:10;;;;;;;8.13;3.88;;;;;;;21.84;60.06;100222.56;5074183;28;20039;-76
2022/06/06 13:16:09;;;;;;;5.60;3.60;;;;;;;21.78;60.70;100220.84;5074780;28;20048;-76
2022/06/06 13:18:43;;;;;;;5.22;3.50;;;;;;;21.71;60.88;100225.59;5074573;28;20044;-76
2022/06/06 13:21:40;;;;;;;5.90;3.38;;;;;;;21.72;60.76;100227.25;5074290;28;20098;-76
2022/06/06 13:24:14;;;;;;;4.38;2.97;;;;;;;21.61;60.64;100214.59;5074401;28;20044;-76
2022/06/06 13:26:43;;;;;;;4.80;3.15;;;;;;;21.64;60.07;100211.38;5073005;28;20528;-76
2022/06/06 13:29:25;;;;;;;5.47;2.97;;;;;;;21.64;60.32;100214.09;5074376;28;20032;-76
2022/06/06 13:32:10;;;;;;;4.65;3.05;;;;;;;21.53;60.03;100218.53;5074966;28;20029;-76
2022/06/06 13:35:06;;;;;;;5.10;2.97;;;;;;;21.55;60.68;100219.09;5074646;28;20043;-76
2022/06/06 13:37:42;;;;;;;5.07;3.30;;;;;;;21.56;60.64;100215.31;5072738;28;20038;-76
2022/06/06 13:40:25;;;;;;;5.75;2.95;;;;;;;21.59;61.07;100220.25;5073678;28;20400;-76
2022/06/06 13:43:35;;;;;;;3.92;3.20;;;;;;;21.70;62.11;100221.22;5072787;28;20043;-76
2022/06/06 13:46:18;;;;;;;4.07;3.25;;;;;;;21.76;62.91;100219.44;5073974;28;20081;-79
2022/06/06 13:49:04;;;;;;;4.97;3.20;;;;;;;21.87;64.67;100218.53;5074092;28;20036;-77
2022/06/06 13:52:08;;;;;;;6.05;3.05;;;;;;;22.03;61.87;100219.56;5072572;28;20450;-77
2022/06/06 13:54:36;;;;;;;5.53;3.15;;;;;;;22.44;62.11;100221.81;5073781;28;20028;-77
2022/06/06 13:57:26;;;;;;;4.28;3.10;;;;;;;22.75;61.02;100216.72;5073882;28;20093;-76
2022/06/06 14:00:07;;;;;;;6.38;3.72;;;;;;;22.91;57.95;100224.00;5073852;28;20068;-77
2022/06/06 14:02:53;;;;;;;3.10;2.55;;;;;;;23.04;58.43;100224.69;5073460;28;20435;-77
2022/06/06 14:05:44;;;;;;;4.28;2.58;;;;;;;23.22;55.86;100233.31;5073624;28;20047;-78
2022/06/06 14:08:20;;;;;;;5.47;3.13;;;;;;;23.41;56.10;100222.88;5073528;28;20059;-77
2022/06/06 14:11:05;;;;;;;3.78;2.33;;;;;;;23.35;53.51;100223.91;5073529;28;20090;-76
2022/06/06 14:14:07;;;;;;;3.92;2.50;;;;;;;23.14;52.79;100228.31;5073169;28;20131;-77
2022/06/06 14:16:35;;;;;;;6.35;2.50;;;;;;;23.05;53.65;100229.88;4991717;28;20054;-77
2022/06/06 14:19:21;;;;;;;3.78;2.50;;;;;;;22.93;53.45;100229.19;5053477;28;20044;-76
2022/06/06 14:22:07;;;;;;;4.88;2.33;;;;;;;22.93;53.60;100231.91;5072906;28;20503;-75
2022/06/06 14:24:36;;;;;;;2.92;2.10;;;;;;;22.65;52.15;100227.47;5072762;28;20052;-77
2022/06/06 14:27:05;;;;;;;3.33;1.92;;;;;;;22.61;52.76;100234.47;5073202;28;20032;-76
2022/06/06 14:29:33;;;;;;;3.15;2.40;;;;;;;22.64;51.59;100234.81;5073109;28;20048;-77
2022/06/06 14:32:20;;;;;;;3.78;2.40;;;;;;;22.51;51.74;100237.09;5072790;28;20060;-76
2022/06/06 14:34:49;;;;;;;4.65;1.88;;;;;;;22.67;54.42;100241.63;5073022;28;20028;-76
2022/06/06 14:37:27;;;;;;;3.70;2.50;;;;;;;22.75;52.26;100225.69;5073007;28;20025;-76
2022/06/06 14:40:00;;;;;;;3.58;2.60;;;;;;;22.76;54.81;100226.53;5072906;28;20146;-76
2022/06/06 14:42:31;;;;;;;5.45;2.55;;;;;;;22.62;54.74;100223.34;5071192;28;20128;-77
2022/06/06 14:45:25;;;;;;;7.50;3.70;;;;;;;22.73;53.96;100222.41;5072862;28;20048;-76
2022/06/06 14:47:54;;;;;;;2.67;2.20;;;;;;;22.59;54.50;100221.16;5072809;28;20040;-77
2022/06/06 14:53:28;;;;;;;3.55;2.50;;;;;;;22.44;51.92;100227.22;5072279;28;20036;-77
2022/06/06 14:56:00;;;;;;;4.03;2.03;;;;;;;22.31;52.52;100224.88;5072540;28;20034;-79
2022/06/06 14:58:29;;;;;;;6.80;2.00;;;;;;;22.18;53.08;100230.69;5072596;28;20194;-76
2022/06/06 15:01:04;;;;;;;3.70;2.10;;;;;;;22.22;52.12;100223.66;5072363;28;20116;-77
2022/06/06 15:03:40;;;;;;;1.98;1.77;;;;;;;22.12;51.99;100221.63;5070989;28;20549;-76
2022/06/06 15:06:21;;;;;;;2.60;2.00;;;;;;;22.18;52.27;100227.97;5071674;28;20072;-75
2022/06/06 15:09:08;;;;;;;3.00;1.92;;;;;;;22.16;52.40;100235.50;5072172;28;20074;-77
2022/06/06 15:11:34;;;;;;;3.20;1.70;;;;;;;22.11;51.59;100227.31;5072153;28;20405;-75
2022/06/06 15:14:38;;;;;;;2.03;1.65;;;;;;;22.07;51.27;100226.13;5072190;28;20036;-76
2022/06/06 15:17:11;;;;;;;5.68;2.03;;;;;;;22.01;52.36;100229.84;4990520;28;20531;-76
2022/06/06 15:19:43;;;;;;;2.97;1.85;;;;;;;21.98;52.03;100235.78;4990776;28;20121;-76
2022/06/06 15:22:23;;;;;;;3.17;1.85;;;;;;;21.88;52.23;100234.53;5035111;28;20059;-76
2022/06/06 15:24:49;;;;;;;2.22;1.88;;;;;;;21.81;52.77;100247.44;5071996;28;20040;-76
2022/06/06 15:27:23;;;;;;;4.05;1.90;;;;;;;21.84;53.07;100243.41;5071782;28;20036;-76
2022/06/06 15:30:02;;;;;;;6.97;2.03;;;;;;;21.73;52.90;100233.50;5071975;28;20048;-76
2022/06/06 15:32:56;;;;;;;3.67;1.98;;;;;;;21.66;52.94;100225.53;5071568;28;20035;-77
2022/06/06 15:35:35;;;;;;;2.40;2.00;;;;;;;21.70;53.40;100223.13;5070458;28;20040;-77
2022/06/06 15:38:11;;;;;;;6.13;2.30;;;;;;;21.75;53.96;100223.22;5071681;28;20144;-76
2022/06/06 15:40:47;;;;;;;3.05;1.90;;;;;;;21.75;53.96;100225.91;5071615;28;20040;-76
2022/06/06 15:43:49;;;;;;;3.92;1.90;;;;;;;21.71;54.06;100222.88;5071516;28;20036;-76
2022/06/06 15:46:30;;;;;;;3.40;1.88;;;;;;;21.74;53.64;100221.56;5071660;28;20551;-76
2022/06/06 15:49:13;;;;;;;4.75;2.90;;;;;;;21.80;53.54;100217.88;5071673;28;20044;-76
2022/06/06 15:51:50;;;;;;;4.85;1.60;;;;;;;21.69;52.78;100208.75;5071416;28;20065;-76
2022/06/06 15:54:41;;;;;;;3.45;1.92;;;;;;;21.75;52.35;100207.75;5071595;28;20032;-76
2022/06/06 15:57:10;;;;;;;3.30;2.10;;;;;;;21.66;52.52;100211.97;5071496;28;20083;-76
2022/06/06 16:00:01;;;;;;;1.70;1.55;;;;;;;21.63;52.12;100209.75;5071338;28;20119;-76
2022/06/06 16:02:32;;;;;;;2.40;1.73;;;;;;;21.62;52.32;100208.91;5069774;28;20064;-76
2022/06/06 16:05:30;;;;;;;3.03;1.70;;;;;;;21.63;52.92;100198.91;5071284;28;20047;-76
2022/06/06 16:08:28;;;;;;;3.05;1.83;;;;;;;21.60;52.94;100194.81;5065326;28;20059;-73
2022/06/06 16:11:23;;;;;;;3.90;1.80;;;;;;;21.57;52.43;100191.75;5071321;28;20028;-75
2022/06/06 16:14:20;;;;;;;4.70;1.90;;;;;;;21.60;53.46;100197.50;5071474;28;20032;-79
2022/06/06 16:16:49;;;;;;;3.40;2.40;;;;;;;21.57;53.05;100189.03;5070141;28;20116;-75
2022/06/06 16:19:33;;;;;;;3.75;2.15;;;;;;;21.52;52.83;100189.81;5070872;28;20040;-76
2022/06/06 16:22:29;;;;;;;4.20;1.90;;;;;;;21.56;52.58;100192.81;5070846;28;20139;-77
2022/06/06 16:25:00;;;;;;;5.72;2.15;;;;;;;21.53;53.48;100187.91;5069983;28;20039;-76
2022/06/06 16:27:43;;;;;;;2.97;1.95;;;;;;;21.51;53.45;100187.31;5071513;28;20048;-76
2022/06/06 16:30:34;;;;;;;4.20;2.05;;;;;;;21.46;53.44;100181.84;5071235;28;20040;-74
2022/06/06 16:33:03;;;;;;;3.97;2.17;;;;;;;21.43;53.46;100185.03;5071186;28;20032;-77
2022/06/06 16:35:40;;;;;;;4.35;1.85;;;;;;;21.39;53.79;100182.81;5071937;28;20072;-76
2022/06/06 16:38:16;;;;;;;;;;;;;;;21.44;53.22;100184.78;5074971;28;20044;-77
2022/06/06 16:40:54;;;;;;;2.00;1.70;;;;;;;21.50;53.81;100175.66;5077719;28;19994;-77
2022/06/06 16:49:28;;;;;;;3.22;2.15;;;;;;;21.55;53.64;100185.75;5071071;28;19992;-77
2022/06/06 16:52:18;;;;;;;2.55;1.70;;;;;;;21.55;53.32;100178.47;5071206;28;20567;-77
2022/06/06 16:55:08;;;;;;;3.42;1.80;;;;;;;21.55;52.78;100178.47;5071136;28;20055;-77
2022/06/06 16:57:58;;;;;;;3.88;1.88;;;;;;;21.55;53.01;100177.63;5070971;28;20046;-78
2022/06/06 17:00:52;;;;;;;3.05;2.20;;;;;;;21.44;53.64;100165.81;5071269;28;20496;-76
2022/06/06 17:03:27;;;;;;;2.55;1.80;;;;;;;21.45;53.46;100170.16;5070812;28;20115;-78
2022/06/06 17:08:41;;;;;;;3.00;2.40;;;;;;;21.46;54.08;100177.25;5071117;28;20178;-76
2022/06/06 17:11:17;;;;;;;3.50;2.10;;;;;;;21.46;53.49;100169.09;5071036;28;20387;-77
2022/06/06 17:13:46;;;;;;;2.08;1.77;;;;;;;21.45;53.59;100162.03;5070949;28;20052;-78
2022/06/06 17:16:29;;;;;;;3.90;1.95;;;;;;;21.46;54.61;100171.81;5069989;28;20033;-77
2022/06/06 17:19:18;;;;;;;2.83;2.30;;;;;;;21.40;53.74;100170.91;5071070;28;20064;-77
2022/06/06 17:21:52;;;;;;;3.80;2.60;;;;;;;21.43;54.12;100168.78;5033860;28;20049;-78
2022/06/06 17:24:26;;;;;;;2.13;1.70;;;;;;;21.35;53.35;100173.53;5071298;28;20047;-77